createdAt,value
2019-02-02T00:00:32.824Z,35.40
2019-02-02T00:02:11.020Z,35.68
2019-02-02T00:03:43.118Z,35.60
2019-02-02T00:05:15.330Z,38.58
2019-02-02T00:06:47.560Z,36.42
2019-02-02T00:08:19.839Z,36.30
2019-02-02T00:09:52.068Z,35.88
2019-02-02T00:11:24.149Z,36.23
2019-02-02T00:12:56.236Z,39.13
2019-02-02T00:14:28.516Z,36.90
2019-02-02T00:16:00.617Z,35.88
2019-02-02T00:17:32.829Z,37.80
2019-02-02T00:19:05.130Z,36.70
2019-02-02T00:20:37.473Z,37.25
2019-02-02T00:22:09.738Z,37.65
2019-02-02T00:23:41.938Z,35.43
2019-02-02T00:25:14.270Z,37.15
2019-02-02T00:26:46.518Z,37.23
2019-02-02T00:28:18.649Z,37.73
2019-02-02T00:29:50.750Z,38.88
2019-02-02T00:31:22.880Z,37.10
2019-02-02T00:32:55.156Z,40.98
2019-02-02T00:34:27.396Z,35.90
2019-02-02T00:35:59.490Z,38.53
2019-02-02T00:37:31.596Z,40.15
2019-02-02T00:39:08.103Z,37.55
2019-02-02T00:40:40.300Z,37.45
2019-02-02T00:42:12.388Z,38.80
2019-02-02T00:43:44.504Z,37.98
2019-02-02T00:45:16.756Z,38.17
2019-02-02T00:46:48.994Z,37.03
2019-02-02T00:48:21.544Z,36.93
2019-02-02T00:49:53.688Z,39.55
2019-02-02T00:51:25.967Z,39.20
2019-02-02T00:53:00.962Z,36.70
2019-02-02T00:54:32.277Z,38.42
2019-02-02T00:56:04.633Z,36.20
2019-02-02T00:57:36.850Z,44.70
2019-02-02T00:59:09.094Z,38.30
2019-02-02T01:00:41.320Z,38.45
2019-02-02T01:02:13.588Z,37.40
2019-02-02T01:03:45.840Z,38.60
2019-02-02T01:05:18.342Z,37.33
2019-02-02T01:06:50.582Z,37.83
2019-02-02T01:08:22.970Z,40.55
2019-02-02T01:09:55.286Z,38.58
2019-02-02T01:11:27.375Z,38.78
2019-02-02T01:12:59.706Z,38.60
2019-02-02T01:14:31.858Z,38.85
2019-02-02T01:16:04.142Z,37.35
2019-02-02T01:17:36.241Z,37.80
2019-02-02T01:19:08.483Z,38.02
2019-02-02T01:20:40.754Z,39.00
2019-02-02T01:22:13.000Z,36.25
2019-02-02T01:23:45.134Z,39.53
2019-02-02T01:25:17.571Z,39.70
2019-02-02T01:26:49.676Z,37.00
2019-02-02T01:28:21.935Z,41.73
2019-02-02T01:29:54.011Z,38.55
2019-02-02T01:31:26.137Z,38.35
2019-02-02T01:32:58.324Z,40.60
2019-02-02T01:34:30.518Z,36.33
2019-02-02T01:36:02.737Z,39.60
2019-02-02T01:37:35.012Z,45.52
2019-02-02T01:39:07.456Z,41.28
2019-02-02T01:40:39.700Z,40.78
2019-02-02T01:42:11.894Z,41.35
2019-02-02T01:43:44.194Z,43.25
2019-02-02T01:45:19.664Z,42.53
2019-02-02T01:46:51.908Z,40.88
2019-02-02T01:48:24.139Z,43.20
2019-02-02T01:49:56.287Z,39.48
2019-02-02T01:51:28.555Z,42.13
2019-02-02T01:53:00.850Z,39.08
2019-02-02T01:54:32.905Z,42.70
2019-02-02T01:56:05.144Z,42.50
2019-02-02T01:57:37.250Z,41.60
2019-02-02T01:59:09.483Z,40.50
2019-02-02T02:00:41.724Z,37.58
2019-02-02T02:02:13.858Z,40.00
2019-02-02T02:03:46.080Z,38.50
2019-02-02T02:05:18.192Z,42.27
2019-02-02T02:06:50.433Z,43.00
2019-02-02T02:08:22.572Z,40.83
2019-02-02T02:09:54.798Z,39.90
2019-02-02T02:11:26.982Z,44.48
2019-02-02T02:12:59.226Z,45.98
2019-02-02T02:14:31.430Z,41.48
2019-02-02T02:16:03.688Z,46.20
2019-02-02T02:17:35.792Z,42.15
2019-02-02T02:19:07.898Z,41.75
2019-02-02T02:20:40.016Z,40.10
2019-02-02T02:22:12.109Z,42.93
2019-02-02T02:23:44.349Z,38.80
2019-02-02T02:25:17.945Z,40.25
2019-02-02T02:26:50.190Z,42.60
2019-02-02T02:28:28.221Z,40.58
2019-02-02T02:29:56.450Z,39.13
2019-02-02T02:31:28.564Z,41.80
2019-02-02T02:33:00.669Z,45.05
2019-02-02T02:34:32.928Z,39.05
2019-02-02T02:36:05.159Z,37.58
2019-02-02T02:37:37.537Z,39.23
2019-02-02T02:39:09.758Z,39.65
2019-02-02T02:40:41.812Z,48.05
2019-02-02T02:42:13.910Z,40.65
2019-02-02T02:43:46.049Z,41.80
2019-02-02T02:45:18.323Z,41.05
2019-02-02T02:47:07.959Z,41.83
2019-02-02T02:48:40.030Z,40.95
2019-02-02T02:50:13.875Z,37.50
2019-02-02T02:51:46.134Z,43.25
2019-02-02T02:53:18.413Z,46.08
2019-02-02T02:54:50.643Z,43.08
2019-02-02T02:56:22.908Z,43.28
2019-02-02T02:57:55.025Z,41.73
2019-02-02T02:59:27.123Z,42.23
2019-02-02T03:00:59.219Z,39.38
2019-02-02T03:02:31.402Z,44.53
2019-02-02T03:04:04.060Z,40.38
2019-02-02T03:05:36.140Z,42.27
2019-02-02T03:07:08.238Z,43.98
2019-02-02T03:08:40.499Z,46.95
2019-02-02T03:10:14.399Z,43.78
2019-02-02T03:11:46.647Z,40.30
2019-02-02T03:13:18.835Z,45.95
2019-02-02T03:14:51.066Z,44.88
2019-02-02T03:16:23.322Z,47.00
2019-02-02T03:17:55.571Z,42.93
2019-02-02T03:19:27.800Z,43.02
2019-02-02T03:21:00.142Z,45.78
2019-02-02T03:22:32.364Z,43.50
2019-02-02T03:24:04.545Z,44.83
2019-02-02T03:25:36.775Z,46.95
2019-02-02T03:27:09.034Z,47.55
2019-02-02T03:28:52.837Z,52.05
2019-02-02T03:30:16.835Z,45.17
2019-02-02T03:31:49.093Z,43.98
2019-02-02T03:33:21.435Z,47.60
2019-02-02T03:34:53.516Z,46.77
2019-02-02T03:36:27.437Z,45.35
2019-02-02T03:37:59.544Z,49.15
2019-02-02T03:39:31.668Z,45.40
2019-02-02T03:41:03.770Z,49.95
2019-02-02T03:42:35.922Z,47.00
2019-02-02T03:44:08.191Z,44.80
2019-02-02T03:45:41.087Z,44.98
2019-02-02T03:47:13.308Z,47.08
2019-02-02T03:48:45.564Z,47.98
2019-02-02T03:50:17.854Z,47.08
2019-02-02T03:51:49.995Z,49.27
2019-02-02T03:53:22.248Z,48.80
2019-02-02T03:54:54.431Z,49.53
2019-02-02T03:56:26.718Z,48.90
2019-02-02T03:57:58.956Z,46.30
2019-02-02T03:59:31.210Z,46.80
2019-02-02T04:01:03.717Z,45.55
2019-02-02T04:02:35.999Z,42.62
2019-02-02T04:04:08.096Z,46.48
2019-02-02T04:05:40.331Z,49.45
2019-02-02T04:07:12.610Z,48.63
2019-02-02T04:08:44.709Z,43.52
2019-02-02T04:10:16.960Z,51.13
2019-02-02T04:11:49.216Z,49.95
2019-02-02T04:13:21.462Z,45.80
2019-02-02T04:14:53.580Z,47.73
2019-02-02T04:16:25.704Z,51.48
2019-02-02T04:17:57.960Z,50.98
2019-02-02T04:19:30.033Z,54.35
2019-02-02T04:21:02.186Z,52.60
2019-02-02T04:22:35.725Z,52.38
2019-02-02T04:24:08.172Z,55.43
2019-02-02T04:25:40.311Z,49.73
2019-02-02T04:27:12.502Z,53.40
2019-02-02T04:28:44.590Z,52.03
2019-02-02T04:30:18.775Z,58.87
2019-02-02T04:31:50.918Z,50.00
2019-02-02T04:33:23.012Z,50.25
2019-02-02T04:34:55.119Z,57.35
2019-02-02T04:36:27.180Z,51.68
2019-02-02T04:37:59.512Z,52.58
2019-02-02T04:39:31.652Z,50.55
2019-02-02T04:41:03.935Z,54.73
2019-02-02T04:42:36.063Z,56.10
2019-02-02T04:44:08.334Z,53.25
2019-02-02T04:45:40.415Z,62.33
2019-02-02T04:47:12.624Z,54.13
2019-02-02T04:48:44.874Z,58.92
2019-02-02T04:50:17.077Z,56.00
2019-02-02T04:51:49.299Z,55.98
2019-02-02T04:53:21.531Z,64.67
2019-02-02T04:54:53.728Z,57.50
2019-02-02T04:56:25.929Z,55.45
2019-02-02T04:57:58.044Z,57.50
2019-02-02T04:59:30.312Z,55.80
2019-02-02T05:01:02.422Z,57.78
2019-02-02T05:02:34.665Z,59.20
2019-02-02T05:04:06.759Z,61.42
2019-02-02T05:05:39.036Z,59.03
2019-02-02T05:07:11.312Z,63.92
2019-02-02T05:08:43.550Z,61.20
2019-02-02T05:10:17.418Z,58.10
2019-02-02T05:11:49.504Z,64.05
2019-02-02T05:13:21.786Z,66.42
2019-02-02T05:14:53.915Z,57.35
2019-02-02T05:16:26.053Z,58.70
2019-02-02T05:17:58.220Z,62.65
2019-02-02T05:19:30.459Z,59.05
2019-02-02T05:21:02.733Z,60.70
2019-02-02T05:22:34.848Z,61.48
2019-02-02T05:24:07.070Z,56.42
2019-02-02T05:25:39.188Z,60.95
2019-02-02T05:27:11.428Z,59.20
2019-02-02T05:28:43.672Z,58.75
2019-02-02T05:30:18.466Z,61.37
2019-02-02T05:31:50.580Z,56.68
2019-02-02T05:33:22.683Z,61.98
2019-02-02T05:34:54.786Z,57.30
2019-02-02T05:36:27.183Z,58.98
2019-02-02T05:37:59.339Z,55.45
2019-02-02T05:39:31.444Z,63.40
2019-02-02T05:41:03.796Z,67.25
2019-02-02T05:42:35.864Z,58.52
2019-02-02T05:44:07.959Z,57.85
2019-02-02T05:45:40.100Z,58.95
2019-02-02T05:47:12.365Z,62.13
2019-02-02T05:48:44.628Z,56.98
2019-02-02T05:50:18.341Z,59.77
2019-02-02T05:51:50.598Z,58.40
2019-02-02T05:53:22.843Z,54.77
2019-02-02T05:54:54.988Z,59.42
2019-02-02T05:56:27.355Z,59.63
2019-02-02T05:57:59.665Z,60.65
2019-02-02T05:59:31.904Z,56.95
2019-02-02T06:01:04.871Z,58.50
2019-02-02T06:02:36.982Z,56.73
2019-02-02T06:04:09.170Z,54.42
2019-02-02T06:05:41.373Z,53.83
2019-02-02T06:07:13.518Z,55.90
2019-02-02T06:08:45.719Z,52.73
2019-02-02T06:10:17.836Z,55.70
2019-02-02T06:11:50.058Z,63.50
2019-02-02T06:13:22.151Z,57.93
2019-02-02T06:14:54.460Z,57.27
2019-02-02T06:16:26.784Z,60.25
2019-02-02T06:17:59.022Z,60.73
2019-02-02T06:19:31.272Z,62.88
2019-02-02T06:21:03.640Z,57.00
2019-02-02T06:22:35.773Z,56.60
2019-02-02T06:24:09.011Z,63.65
2019-02-02T06:25:41.259Z,60.05
2019-02-02T06:27:13.485Z,57.78
2019-02-02T06:28:45.696Z,60.95
2019-02-02T06:30:17.968Z,60.08
2019-02-02T06:31:50.262Z,58.73
2019-02-02T06:33:22.524Z,63.23
2019-02-02T06:34:54.844Z,60.73
2019-02-02T06:36:26.947Z,56.15
2019-02-02T06:37:59.043Z,67.05
2019-02-02T06:39:31.154Z,56.63
2019-02-02T06:41:03.425Z,58.00
2019-02-02T06:42:35.540Z,57.33
2019-02-02T06:44:07.812Z,60.35
2019-02-02T06:45:40.023Z,63.10
2019-02-02T06:47:12.226Z,57.38
2019-02-02T06:48:44.540Z,61.37
2019-02-02T06:50:16.764Z,62.05
2019-02-02T06:51:48.819Z,59.98
2019-02-02T06:53:20.920Z,63.30
2019-02-02T06:54:53.059Z,67.78
2019-02-02T06:56:25.178Z,62.50
2019-02-02T06:57:57.458Z,63.08
2019-02-02T06:59:29.664Z,63.80
2019-02-02T07:01:01.753Z,63.28
2019-02-02T07:02:33.981Z,61.02
2019-02-02T07:04:06.140Z,61.50
2019-02-02T07:05:38.392Z,59.03
2019-02-02T07:07:10.699Z,66.40
2019-02-02T07:08:42.970Z,64.72
2019-02-02T07:10:17.750Z,59.80
2019-02-02T07:11:49.892Z,61.53
2019-02-02T07:13:22.120Z,64.50
2019-02-02T07:14:54.362Z,66.87
2019-02-02T07:16:26.532Z,64.03
2019-02-02T07:17:58.654Z,64.67
2019-02-02T07:19:30.856Z,65.70
2019-02-02T07:21:03.001Z,69.70
2019-02-02T07:22:36.009Z,65.52
2019-02-02T07:24:08.217Z,63.23
2019-02-02T07:25:40.436Z,66.70
2019-02-02T07:27:12.745Z,64.40
2019-02-02T07:28:45.001Z,60.45
2019-02-02T07:30:28.411Z,69.27
2019-02-02T07:31:52.416Z,34.25
2019-02-02T07:33:24.518Z,41.42
2019-02-02T07:34:56.666Z,46.45
2019-02-02T07:36:28.905Z,42.45
2019-02-02T07:38:01.062Z,43.85
2019-02-02T07:39:33.164Z,45.23
2019-02-02T07:41:05.445Z,42.78
2019-02-02T07:42:37.688Z,42.38
2019-02-02T07:44:09.936Z,39.23
2019-02-02T07:45:42.176Z,41.65
2019-02-02T07:47:14.482Z,36.30
2019-02-02T07:48:46.720Z,44.67
2019-02-02T07:50:18.959Z,55.40
2019-02-02T07:51:51.255Z,54.03
2019-02-02T07:53:23.498Z,55.65
2019-02-02T07:54:55.651Z,56.33
2019-02-02T07:56:27.888Z,53.48
2019-02-02T07:57:59.970Z,54.95
2019-02-02T07:59:32.072Z,52.88
2019-02-02T08:01:04.343Z,55.63
2019-02-02T08:02:36.506Z,54.95
2019-02-02T08:04:08.772Z,56.15
2019-02-02T08:05:41.026Z,55.55
2019-02-02T08:07:13.333Z,57.70
2019-02-02T08:08:45.508Z,56.85
2019-02-02T08:10:17.720Z,62.83
2019-02-02T08:11:49.845Z,61.58
2019-02-02T08:13:22.115Z,60.58
2019-02-02T08:14:54.355Z,57.67
2019-02-02T08:16:26.749Z,56.80
2019-02-02T08:17:58.923Z,57.03
2019-02-02T08:19:31.007Z,54.55
2019-02-02T08:21:03.226Z,52.78
2019-02-02T08:22:35.349Z,61.37
2019-02-02T08:24:07.587Z,64.45
2019-02-02T08:25:39.817Z,56.68
2019-02-02T08:27:12.101Z,57.53
2019-02-02T08:28:44.295Z,68.72
2019-02-02T08:30:18.250Z,63.60
2019-02-02T08:31:50.500Z,71.12
2019-02-02T08:33:22.687Z,60.33
2019-02-02T08:34:54.944Z,77.58
2019-02-02T08:36:27.205Z,56.02
2019-02-02T08:37:59.464Z,58.63
2019-02-02T08:39:31.678Z,57.58
2019-02-02T08:41:03.835Z,64.37
2019-02-02T08:42:36.155Z,60.25
2019-02-02T08:44:08.281Z,61.55
2019-02-02T08:45:40.404Z,63.80
2019-02-02T08:47:12.680Z,64.72
2019-02-02T08:48:44.961Z,64.10
2019-02-02T08:50:23.158Z,59.05
2019-02-02T08:51:55.282Z,59.50
2019-02-02T08:53:27.460Z,64.80
2019-02-02T08:54:59.583Z,61.40
2019-02-02T08:56:31.859Z,60.08
2019-02-02T08:58:04.642Z,62.40
2019-02-02T08:59:36.899Z,64.87
2019-02-02T09:01:09.148Z,58.85
2019-02-02T09:02:41.422Z,61.55
2019-02-02T09:04:13.649Z,67.47
2019-02-02T09:05:45.794Z,61.85
2019-02-02T09:07:17.896Z,63.50
2019-02-02T09:08:50.226Z,63.40
2019-02-02T09:10:24.021Z,64.95
2019-02-02T09:11:56.317Z,61.08
2019-02-02T09:13:28.420Z,62.48
2019-02-02T09:15:00.716Z,59.05
2019-02-02T09:16:33.105Z,57.50
2019-02-02T09:18:05.268Z,60.23
2019-02-02T09:19:37.397Z,61.83
2019-02-02T09:21:09.663Z,60.58
2019-02-02T09:22:41.931Z,62.60
2019-02-02T09:24:14.092Z,65.52
2019-02-02T09:25:46.213Z,64.75
2019-02-02T09:27:18.417Z,60.00
2019-02-02T09:28:50.587Z,62.78
2019-02-02T09:30:25.140Z,61.18
2019-02-02T09:31:57.245Z,58.80
2019-02-02T09:33:29.364Z,60.45
2019-02-02T09:35:01.597Z,60.28
2019-02-02T09:36:33.837Z,61.25
2019-02-02T09:38:06.004Z,61.92
2019-02-02T09:39:38.093Z,61.70
2019-02-02T09:41:10.209Z,62.35
2019-02-02T09:42:42.535Z,63.95
2019-02-02T09:44:14.838Z,60.52
2019-02-02T09:45:46.991Z,62.53
2019-02-02T09:47:20.260Z,63.83
2019-02-02T09:48:52.604Z,63.70
2019-02-02T09:50:25.219Z,64.67
2019-02-02T09:51:57.425Z,63.80
2019-02-02T09:53:29.807Z,63.92
2019-02-02T09:55:02.115Z,66.50
2019-02-02T09:56:34.481Z,65.10
2019-02-02T09:58:09.075Z,69.10
2019-02-02T09:59:41.562Z,67.75
2019-02-02T10:01:13.660Z,69.80
2019-02-02T10:02:46.159Z,71.75
2019-02-02T10:04:18.348Z,70.52
2019-02-02T10:05:50.472Z,79.35
2019-02-02T10:07:22.755Z,70.40
2019-02-02T10:08:55.004Z,73.65
2019-02-02T10:10:28.793Z,66.20
2019-02-02T10:12:00.945Z,62.80
2019-02-02T10:13:33.190Z,64.85
2019-02-02T10:15:05.734Z,68.92
2019-02-02T10:16:37.858Z,70.17
2019-02-02T10:18:10.140Z,82.82
2019-02-02T10:19:42.304Z,77.67
2019-02-02T10:21:14.569Z,86.12
2019-02-02T10:22:46.918Z,100.00
2019-02-02T10:24:19.109Z,83.50
2019-02-02T10:25:51.397Z,83.52
2019-02-02T10:27:23.615Z,76.95
2019-02-02T10:28:55.849Z,86.00
2019-02-02T10:30:32.922Z,99.20
2019-02-02T10:32:05.180Z,77.80
2019-02-02T10:33:37.415Z,81.55
2019-02-02T10:35:09.591Z,75.28
2019-02-02T10:36:41.810Z,78.10
2019-02-02T10:38:14.054Z,77.82
2019-02-02T10:39:46.305Z,76.10
2019-02-02T10:41:18.392Z,83.70
2019-02-02T10:42:50.594Z,94.62
2019-02-02T10:44:22.831Z,85.22
2019-02-02T10:45:55.128Z,89.75
2019-02-02T10:47:27.420Z,80.60
2019-02-02T10:48:59.676Z,79.27
2019-02-02T10:50:31.959Z,78.55
2019-02-02T10:52:04.776Z,76.05
2019-02-02T10:53:36.917Z,73.33
2019-02-02T10:55:12.521Z,85.40
2019-02-02T10:56:44.662Z,84.87
2019-02-02T10:58:17.017Z,78.65
2019-02-02T10:59:49.173Z,80.32
2019-02-02T11:01:21.403Z,80.25
2019-02-02T11:02:53.529Z,73.30
2019-02-02T11:04:25.694Z,87.45
2019-02-02T11:05:57.898Z,75.00
2019-02-02T11:07:30.181Z,75.92
2019-02-02T11:09:02.811Z,74.20
2019-02-02T11:10:35.301Z,73.02
2019-02-02T11:12:07.874Z,71.30
2019-02-02T11:13:40.251Z,67.95
2019-02-02T11:15:14.124Z,67.95
2019-02-02T11:16:46.629Z,75.35
2019-02-02T11:18:19.044Z,69.47
2019-02-02T11:19:51.370Z,69.40
2019-02-02T11:21:23.605Z,73.02
2019-02-02T11:22:55.969Z,67.82
2019-02-02T11:24:28.319Z,67.78
2019-02-02T11:26:00.671Z,69.07
2019-02-02T11:27:32.874Z,71.72
2019-02-02T11:29:05.148Z,72.53
2019-02-02T11:30:37.481Z,76.33
2019-02-02T11:32:09.685Z,67.32
2019-02-02T11:33:44.324Z,69.40
2019-02-02T11:35:15.826Z,69.67
2019-02-02T11:36:48.044Z,72.87
2019-02-02T11:38:20.325Z,78.92
2019-02-02T11:39:52.602Z,67.40
2019-02-02T11:41:24.664Z,67.22
2019-02-02T11:42:57.070Z,71.47
2019-02-02T11:44:29.222Z,75.03
2019-02-02T11:46:01.416Z,71.12
2019-02-02T11:47:33.703Z,75.97
2019-02-02T11:49:05.800Z,80.28
2019-02-02T11:50:37.908Z,69.35
2019-02-02T11:52:10.032Z,74.92
2019-02-02T11:53:42.296Z,71.30
2019-02-02T11:55:15.184Z,68.17
2019-02-02T11:56:47.485Z,70.60
2019-02-02T11:58:19.710Z,69.55
2019-02-02T11:59:51.899Z,70.78
2019-02-02T12:01:24.311Z,73.17
2019-02-02T12:02:56.435Z,75.72
2019-02-02T12:04:28.561Z,71.80
2019-02-02T12:06:00.727Z,68.80
2019-02-02T12:07:32.912Z,68.12
2019-02-02T12:09:06.407Z,69.10
2019-02-02T12:10:38.535Z,70.05
2019-02-02T12:12:10.770Z,68.78
2019-02-02T12:13:42.978Z,74.95
2019-02-02T12:15:16.033Z,65.62
2019-02-02T12:16:48.158Z,69.07
2019-02-02T12:18:20.478Z,70.25
2019-02-02T12:19:52.685Z,67.40
2019-02-02T12:21:24.953Z,69.15
2019-02-02T12:22:57.052Z,68.92
2019-02-02T12:24:29.300Z,68.70
2019-02-02T12:26:01.599Z,70.57
2019-02-02T12:27:33.872Z,75.35
2019-02-02T12:29:06.142Z,65.55
2019-02-02T12:30:38.416Z,72.00
2019-02-02T12:32:10.520Z,69.42
2019-02-02T12:33:42.738Z,69.35
2019-02-02T12:35:17.220Z,63.60
2019-02-02T12:36:49.463Z,66.25
2019-02-02T12:38:21.656Z,63.30
2019-02-02T12:39:53.729Z,68.17
2019-02-02T12:41:25.871Z,66.57
2019-02-02T12:42:58.114Z,63.35
2019-02-02T12:44:30.370Z,68.90
2019-02-02T12:46:02.738Z,66.87
2019-02-02T12:47:34.932Z,70.65
2019-02-02T12:49:07.112Z,68.67
2019-02-02T12:50:39.509Z,69.85
2019-02-02T12:52:11.705Z,68.35
2019-02-02T12:53:43.964Z,68.22
2019-02-02T12:55:16.585Z,66.80
2019-02-02T12:56:48.944Z,67.05
2019-02-02T12:58:21.101Z,59.15
2019-02-02T12:59:53.238Z,65.35
2019-02-02T13:01:25.528Z,62.78
2019-02-02T13:02:57.748Z,64.00
2019-02-02T13:04:30.007Z,67.53
2019-02-02T13:06:02.253Z,63.70
2019-02-02T13:07:34.448Z,65.83
2019-02-02T13:09:08.367Z,66.30
2019-02-02T13:10:40.629Z,66.07
2019-02-02T13:12:12.966Z,61.58
2019-02-02T13:13:45.079Z,63.85
2019-02-02T13:15:17.378Z,62.08
2019-02-02T13:16:50.213Z,60.98
2019-02-02T13:18:22.640Z,63.40
2019-02-02T13:19:54.970Z,56.95
2019-02-02T13:21:27.174Z,62.45
2019-02-02T13:22:59.235Z,62.33
2019-02-02T13:24:31.360Z,74.17
2019-02-02T13:26:05.610Z,70.12
2019-02-02T13:27:37.808Z,68.65
2019-02-02T13:29:10.077Z,72.42
2019-02-02T13:30:42.307Z,69.53
2019-02-02T13:32:14.752Z,67.10
2019-02-02T13:33:46.860Z,68.70
2019-02-02T13:35:19.311Z,84.55
2019-02-02T13:36:51.452Z,75.70
2019-02-02T13:38:23.753Z,68.90
2019-02-02T13:39:55.896Z,65.97
2019-02-02T13:41:28.045Z,62.08
2019-02-02T13:43:00.242Z,67.25
2019-02-02T13:44:32.476Z,66.55
2019-02-02T13:46:04.553Z,66.82
2019-02-02T13:47:36.862Z,65.50
2019-02-02T13:49:08.938Z,65.90
2019-02-02T13:50:41.178Z,69.03
2019-02-02T13:52:13.346Z,70.32
2019-02-02T13:53:45.546Z,67.67
2019-02-02T13:55:17.811Z,68.05
2019-02-02T13:56:50.174Z,67.87
2019-02-02T13:58:22.444Z,69.90
2019-02-02T13:59:54.700Z,68.47
2019-02-02T14:01:26.856Z,67.22
2019-02-02T14:03:03.704Z,70.80
2019-02-02T14:04:33.182Z,65.75
2019-02-02T14:06:05.428Z,71.85
2019-02-02T14:07:37.615Z,69.05
2019-02-02T14:09:09.863Z,69.10
2019-02-02T14:10:42.096Z,70.60
2019-02-02T14:12:14.633Z,71.65
2019-02-02T14:13:46.784Z,69.53
2019-02-02T14:15:19.180Z,71.87
2019-02-02T14:16:51.383Z,68.55
2019-02-02T14:18:23.614Z,68.97
2019-02-02T14:19:55.738Z,71.77
2019-02-02T14:21:27.864Z,71.15
2019-02-02T14:23:00.216Z,69.03
2019-02-02T14:24:32.309Z,73.60
2019-02-02T14:26:04.600Z,72.75
2019-02-02T14:27:36.731Z,67.80
2019-02-02T14:29:08.849Z,65.15
2019-02-02T14:30:41.062Z,66.45
2019-02-02T14:32:13.195Z,70.83
2019-02-02T14:33:45.420Z,76.35
2019-02-02T14:35:18.607Z,72.37
2019-02-02T14:36:50.705Z,66.92
2019-02-02T14:38:22.792Z,70.15
2019-02-02T14:39:55.373Z,69.32
2019-02-02T14:41:28.154Z,67.65
2019-02-02T14:43:01.240Z,77.65
2019-02-02T14:44:33.768Z,66.87
2019-02-02T14:46:06.000Z,72.78
2019-02-02T14:47:38.335Z,74.70
2019-02-02T14:49:10.648Z,81.63
2019-02-02T14:50:42.918Z,72.05
2019-02-02T14:52:15.022Z,74.85
2019-02-02T14:53:47.179Z,74.22
2019-02-02T14:55:28.706Z,69.95
2019-02-02T14:57:00.963Z,71.77
2019-02-02T14:58:33.232Z,71.15
2019-02-02T15:00:08.995Z,77.12
2019-02-02T15:01:41.313Z,74.90
2019-02-02T15:03:25.272Z,72.70
2019-02-02T15:04:47.504Z,78.80
2019-02-02T15:06:19.621Z,69.60
2019-02-02T15:07:51.908Z,73.55
2019-02-02T15:09:26.186Z,70.87
2019-02-02T15:10:58.144Z,72.87
2019-02-02T15:12:33.100Z,74.55
2019-02-02T15:14:05.359Z,75.50
2019-02-02T15:15:37.453Z,72.55
2019-02-02T15:17:09.542Z,76.05
2019-02-02T15:18:41.768Z,73.95
2019-02-02T15:20:27.868Z,71.12
2019-02-02T15:22:00.146Z,80.60
2019-02-02T15:23:32.246Z,78.30
2019-02-02T15:25:05.327Z,79.25
2019-02-02T15:26:37.591Z,77.10
2019-02-02T15:28:09.825Z,77.87
2019-02-02T15:29:42.033Z,78.47
2019-02-02T15:31:14.170Z,73.25
2019-02-02T15:32:46.381Z,81.12
2019-02-02T15:34:18.520Z,81.28
2019-02-02T15:35:50.711Z,82.90
2019-02-02T15:37:22.866Z,78.83
2019-02-02T15:38:55.294Z,82.10
2019-02-02T15:40:27.537Z,81.37
2019-02-02T15:41:59.835Z,86.78
2019-02-02T15:43:33.399Z,87.95
2019-02-02T15:45:07.301Z,82.90
2019-02-02T15:46:48.690Z,79.47
2019-02-02T15:48:13.764Z,85.17
2019-02-02T15:49:45.998Z,83.58
2019-02-02T15:51:18.232Z,90.30
2019-02-02T15:52:50.628Z,81.82
2019-02-02T15:54:22.805Z,85.10
2019-02-02T15:55:55.141Z,90.62
2019-02-02T15:57:27.280Z,85.03
2019-02-02T15:58:59.503Z,87.05
2019-02-02T16:00:33.296Z,81.92
2019-02-02T16:02:05.409Z,81.08
2019-02-02T16:03:49.174Z,82.88
2019-02-02T16:05:12.824Z,77.53
2019-02-02T16:06:45.067Z,82.33
2019-02-02T16:08:17.308Z,84.77
2019-02-02T16:09:49.572Z,78.47
2019-02-02T16:11:21.747Z,77.90
2019-02-02T16:12:53.995Z,85.45
2019-02-02T16:14:26.103Z,80.38
2019-02-02T16:15:58.296Z,81.10
2019-02-02T16:17:30.517Z,78.35
2019-02-02T16:19:02.776Z,87.65
2019-02-02T16:20:41.951Z,82.92
2019-02-02T16:22:14.040Z,88.60
2019-02-02T16:23:46.305Z,84.28
2019-02-02T16:25:18.549Z,83.20
2019-02-02T16:26:50.805Z,88.20
2019-02-02T16:28:22.968Z,83.12
2019-02-02T16:29:55.164Z,88.60
2019-02-02T16:31:27.443Z,85.80
2019-02-02T16:32:59.681Z,82.78
2019-02-02T16:34:32.104Z,77.65
2019-02-02T16:36:04.350Z,83.80
2019-02-02T16:37:36.537Z,98.00
2019-02-02T16:39:08.670Z,93.25
2019-02-02T16:40:40.910Z,93.33
2019-02-02T16:42:13.232Z,85.25
2019-02-02T16:43:45.548Z,86.25
2019-02-02T16:45:19.673Z,81.82
2019-02-02T16:46:51.805Z,85.42
2019-02-02T16:48:24.069Z,83.40
2019-02-02T16:49:56.214Z,91.65
2019-02-02T16:51:28.422Z,85.87
2019-02-02T16:53:00.619Z,83.70
2019-02-02T16:54:32.947Z,78.90
2019-02-02T16:56:05.129Z,77.58
2019-02-02T16:57:37.832Z,74.80
2019-02-02T16:59:09.960Z,79.12
2019-02-02T17:00:42.039Z,78.67
2019-02-02T17:02:14.329Z,82.02
2019-02-02T17:03:46.588Z,82.65
2019-02-02T17:05:18.880Z,81.25
2019-02-02T17:06:50.963Z,84.67
2019-02-02T17:08:23.086Z,73.17
2019-02-02T17:09:55.307Z,77.20
2019-02-02T17:11:27.372Z,74.72
2019-02-02T17:12:59.495Z,73.50
2019-02-02T17:14:31.802Z,77.00
2019-02-02T17:16:04.040Z,78.87
2019-02-02T17:17:36.128Z,77.10
2019-02-02T17:19:08.383Z,80.67
2019-02-02T17:20:42.673Z,77.27
2019-02-02T17:22:14.764Z,92.88
2019-02-02T17:23:47.012Z,78.02
2019-02-02T17:25:22.520Z,86.15
2019-02-02T17:26:53.774Z,86.60
2019-02-02T17:28:25.872Z,91.65
2019-02-02T17:29:58.003Z,95.85
2019-02-02T17:31:30.303Z,83.78
2019-02-02T17:33:04.760Z,88.67
2019-02-02T17:34:36.865Z,82.62
2019-02-02T17:36:09.124Z,79.30
2019-02-02T17:37:41.296Z,83.78
2019-02-02T17:39:13.383Z,84.07
2019-02-02T17:40:45.654Z,77.67
2019-02-02T17:42:17.934Z,75.65
2019-02-02T17:43:50.009Z,78.00
2019-02-02T17:45:22.297Z,74.97
2019-02-02T17:46:54.636Z,79.72
2019-02-02T17:48:26.899Z,80.87
2019-02-02T17:49:59.171Z,77.40
2019-02-02T17:51:31.429Z,78.75
2019-02-02T17:53:03.902Z,71.95
2019-02-02T17:54:36.140Z,74.00
2019-02-02T17:56:08.358Z,77.05
2019-02-02T17:57:40.438Z,73.72
2019-02-02T17:59:12.759Z,74.27
2019-02-02T18:01:04.650Z,80.10
2019-02-02T18:02:36.872Z,70.90
2019-02-02T18:04:09.122Z,71.70
2019-02-02T18:05:41.223Z,79.30
2019-02-02T18:07:13.442Z,77.75
2019-02-02T18:08:45.504Z,103.67
2019-02-02T18:10:17.698Z,96.15
2019-02-02T18:11:49.852Z,77.87
2019-02-02T18:13:21.916Z,74.85
2019-02-02T18:14:54.179Z,76.53
2019-02-02T18:16:26.276Z,76.00
2019-02-02T18:17:58.522Z,69.17
2019-02-02T18:19:30.776Z,79.80
2019-02-02T18:21:03.199Z,80.40
2019-02-02T18:22:35.458Z,78.75
2019-02-02T18:24:07.560Z,72.67
2019-02-02T18:25:39.779Z,78.12
2019-02-02T18:27:11.977Z,75.45
2019-02-02T18:28:44.136Z,81.35
2019-02-02T18:30:17.734Z,74.95
2019-02-02T18:31:49.868Z,82.92
2019-02-02T18:33:22.102Z,84.03
2019-02-02T18:34:54.237Z,84.20
2019-02-02T18:36:26.451Z,74.75
2019-02-02T18:37:58.602Z,77.55
2019-02-02T18:39:30.838Z,74.50
2019-02-02T18:41:03.144Z,77.32
2019-02-02T18:42:35.493Z,72.27
2019-02-02T18:44:07.718Z,76.45
2019-02-02T18:45:39.876Z,75.00
2019-02-02T18:47:12.129Z,81.82
2019-02-02T18:48:44.350Z,81.63
2019-02-02T18:50:16.630Z,79.58
2019-02-02T18:51:48.939Z,79.92
2019-02-02T18:53:21.297Z,74.05
2019-02-02T18:54:53.597Z,73.97
2019-02-02T18:56:25.879Z,76.10
2019-02-02T18:57:57.996Z,76.85
2019-02-02T18:59:30.328Z,84.67
2019-02-02T19:01:02.795Z,89.72
2019-02-02T19:02:34.924Z,90.30
2019-02-02T19:04:07.166Z,82.47
2019-02-02T19:05:39.368Z,85.00
2019-02-02T19:07:11.642Z,82.60
2019-02-02T19:08:43.842Z,83.35
2019-02-02T19:10:18.563Z,102.07
2019-02-02T19:11:50.832Z,93.30
2019-02-02T19:13:23.136Z,97.40
2019-02-02T19:14:55.423Z,87.80
2019-02-02T19:16:27.711Z,74.07
2019-02-02T19:18:03.002Z,78.85
2019-02-02T19:19:33.990Z,81.25
2019-02-02T19:21:06.100Z,74.40
2019-02-02T19:22:38.234Z,79.35
2019-02-02T19:24:10.458Z,75.97
2019-02-02T19:25:43.648Z,66.85
2019-02-02T19:27:15.734Z,63.25
2019-02-02T19:28:48.006Z,65.32
2019-02-02T19:30:22.578Z,63.17
2019-02-02T19:31:54.728Z,57.95
2019-02-02T19:33:26.963Z,59.20
2019-02-02T19:34:59.210Z,60.50
2019-02-02T19:36:31.307Z,59.95
2019-02-02T19:38:03.625Z,53.55
2019-02-02T19:39:35.874Z,52.75
2019-02-02T19:41:08.091Z,44.27
2019-02-02T19:42:40.250Z,42.40
2019-02-02T19:44:12.476Z,38.13
2019-02-02T19:45:44.588Z,37.25
2019-02-02T19:47:16.694Z,41.00
2019-02-02T19:48:48.844Z,39.67
2019-02-02T19:50:23.486Z,40.55